Light Rain Current Weather (METAR) For Cancun Airport

All times on the weather descriptions are local

Observed at 15:43 - (31 mins ago)

Light Rain

26°C

Light Rain
Clouds: Broken Clouds at 1,500ft, Broken Clouds at 8,000ft
Wind: 100° at 04 knots
Visibility: 6 statute miles
QNH:
Dew Point: 25°C
Runway in Use: Likely Runway 12

Sunrise Today: 06:45
Sunset Today: 18:18

Forecast Weather (TAF) For Cancun Airport

Issued at 19:00 - (7 days 2 hrs ago)


Runway in Use: Unable to determine, wind is clam

Forecast valid until 19:00 on Thursday

METAR/TAF RAW METAR / TAF

MMUN 232043Z 10004KT 6SM -RA BKN015CB BKN080 26/25 A2975 RMK SLP067 57017 953 60065 8/360 RAB30

Weather Widget

Put weather from any of our airports on your website with our weather widget.

Find Another Search

Airport Search


Please Wait Please Wait - Loading
Close
Close

Login

Username:

Password:

Remember Me:

Remember me on this computer

Forgotten your password? Get a reset password sent to your registered e-mail address

Close

User Private Message

Subject:

Message: